createdAt,value
2022-07-25T00:00:14.931Z,97703.81
2022-07-25T00:05:17.466Z,97698.78
2022-07-25T00:10:18.756Z,97696.56
2022-07-25T00:15:20.100Z,97690.59
2022-07-25T00:20:21.624Z,97699.91
2022-07-25T00:25:22.939Z,97702.25
2022-07-25T00:30:24.282Z,97690.56
2022-07-25T00:35:25.562Z,97690.97
2022-07-25T00:40:26.806Z,97679.84
2022-07-25T00:45:28.100Z,97673.31
2022-07-25T00:50:29.371Z,97677.28
2022-07-25T00:55:30.645Z,97671.47
2022-07-25T01:00:32.308Z,97663.84
2022-07-25T01:05:33.593Z,97655.75
2022-07-25T01:10:35.055Z,97661.91
2022-07-25T01:15:36.354Z,97661.38
2022-07-25T01:20:40.705Z,97672.59
2022-07-25T01:25:42.027Z,97666.47
2022-07-25T01:30:43.483Z,97656.03
2022-07-25T01:35:44.787Z,97658.28
2022-07-25T01:40:46.099Z,97647.97
2022-07-25T01:45:47.426Z,97645.34
2022-07-25T01:50:48.778Z,97643.34
2022-07-25T01:55:50.323Z,97639.34
2022-07-25T02:00:53.611Z,97640.31
2022-07-25T02:05:54.962Z,97638.50
2022-07-25T02:10:57.536Z,97637.75
2022-07-25T02:15:58.867Z,97635.72
2022-07-25T02:21:00.248Z,97622.50
2022-07-25T02:26:01.516Z,97630.69
2022-07-25T02:31:02.817Z,97614.69
2022-07-25T02:36:04.178Z,97609.19
2022-07-25T02:41:05.553Z,97599.31
2022-07-25T02:46:06.933Z,97606.53
2022-07-25T02:51:08.372Z,97608.91
2022-07-25T02:56:09.670Z,97608.50
2022-07-25T03:01:11.338Z,97603.34
2022-07-25T03:06:12.709Z,97596.94
2022-07-25T03:11:14.227Z,97595.97
2022-07-25T03:16:15.533Z,97596.41
2022-07-25T03:21:16.883Z,97595.31
2022-07-25T03:26:18.128Z,97598.16
2022-07-25T03:31:19.517Z,97595.28
2022-07-25T03:36:20.825Z,97598.63
2022-07-25T03:41:22.070Z,97595.09
2022-07-25T03:46:23.345Z,97595.38
2022-07-25T03:51:24.667Z,97598.47
2022-07-25T03:56:25.936Z,97600.50
2022-07-25T04:01:27.330Z,97595.16
2022-07-25T04:06:28.667Z,97598.63
2022-07-25T04:11:30.919Z,97591.25
2022-07-25T04:16:32.304Z,97588.06
2022-07-25T04:21:33.843Z,97594.91
2022-07-25T04:26:35.155Z,97585.28
2022-07-25T04:31:36.456Z,97574.59
2022-07-25T04:36:37.823Z,97581.25
2022-07-25T04:41:39.103Z,97583.16
2022-07-25T04:46:40.368Z,97583.94
2022-07-25T04:51:41.664Z,97574.81
2022-07-25T05:01:44.367Z,97569.75
2022-07-25T05:06:45.651Z,97578.59
2022-07-25T05:11:49.483Z,97565.41
2022-07-25T05:16:53.027Z,97560.00
2022-07-25T05:21:54.397Z,97573.81
2022-07-25T05:26:55.659Z,97579.09
2022-07-25T05:31:56.949Z,97588.41
2022-07-25T05:36:58.276Z,97580.81
2022-07-25T05:41:59.536Z,97559.09
2022-07-25T05:47:00.962Z,97553.97
2022-07-25T05:52:02.279Z,97564.16
2022-07-25T05:57:03.542Z,97561.09
2022-07-25T06:02:04.975Z,97561.38
2022-07-25T06:07:06.666Z,97553.97
2022-07-25T06:12:09.809Z,97542.03
2022-07-25T06:17:11.216Z,97527.53
2022-07-25T06:22:13.770Z,97513.00
2022-07-25T06:27:20.188Z,97494.09
2022-07-25T06:32:22.461Z,97465.06
2022-07-25T06:37:23.882Z,97426.19
2022-07-25T06:42:25.327Z,97430.41
2022-07-25T06:47:26.660Z,97418.50
2022-07-25T06:52:27.956Z,97419.66
2022-07-25T06:57:29.224Z,97393.94
2022-07-25T07:02:30.528Z,97390.59
2022-07-25T07:07:31.819Z,97380.16
2022-07-25T07:12:33.109Z,97373.16
2022-07-25T07:17:34.481Z,97372.88
2022-07-25T07:22:35.760Z,97373.84
2022-07-25T07:27:38.220Z,97372.97
2022-07-25T07:32:39.548Z,97373.00
2022-07-25T07:37:43.644Z,97374.28
2022-07-25T07:42:45.337Z,97367.69
2022-07-25T07:47:48.643Z,97364.69
2022-07-25T07:52:49.942Z,97364.78
2022-07-25T07:57:51.237Z,97376.47
2022-07-25T08:02:52.728Z,97361.41
2022-07-25T08:07:54.138Z,97359.09
2022-07-25T08:12:55.461Z,97358.47
2022-07-25T08:17:56.814Z,97360.22
2022-07-25T08:22:58.132Z,97372.84
2022-07-25T08:27:59.411Z,97364.91
2022-07-25T08:33:00.888Z,97364.44
2022-07-25T08:38:02.421Z,97353.13
2022-07-25T08:43:04.412Z,97351.13
2022-07-25T08:48:05.715Z,97347.88
2022-07-25T08:53:33.190Z,97324.06
2022-07-25T08:58:28.833Z,97301.63
2022-07-25T09:03:30.184Z,97295.00
2022-07-25T09:08:31.602Z,97285.22
2022-07-25T09:13:38.507Z,97273.94
2022-07-25T09:18:43.116Z,97275.03
2022-07-25T09:23:44.399Z,97264.75
2022-07-25T09:28:45.679Z,97259.63
2022-07-25T09:33:47.999Z,97265.59
2022-07-25T09:38:49.313Z,97232.28
2022-07-25T09:43:50.677Z,97236.28
2022-07-25T09:48:53.143Z,97225.88
2022-07-25T09:53:54.765Z,97222.34
2022-07-25T09:58:56.495Z,97223.63
2022-07-25T10:03:57.866Z,97221.97
2022-07-25T10:08:59.190Z,97200.94
2022-07-25T10:14:00.538Z,97207.59
2022-07-25T10:19:01.970Z,97210.34
2022-07-25T10:24:03.667Z,97176.53
2022-07-25T10:29:05.380Z,97179.09
2022-07-25T10:34:07.152Z,97185.50
2022-07-25T10:39:08.755Z,97169.00
2022-07-25T10:44:11.193Z,97164.13
2022-07-25T10:49:12.984Z,97151.06
2022-07-25T10:54:14.850Z,97129.53
2022-07-25T10:59:16.620Z,97131.84
2022-07-25T11:04:18.104Z,97142.34
2022-07-25T11:09:23.829Z,97126.38
2022-07-25T11:14:28.075Z,97124.94
2022-07-25T11:19:29.345Z,97107.63
2022-07-25T11:24:30.615Z,97119.34
2022-07-25T11:29:32.050Z,97098.03
2022-07-25T11:34:33.726Z,97102.25
2022-07-25T11:39:35.093Z,97087.72
2022-07-25T11:44:36.369Z,97086.84
2022-07-25T11:49:37.680Z,97067.66
2022-07-25T11:54:38.931Z,97050.22
2022-07-25T11:59:40.175Z,97058.22
2022-07-25T12:04:41.474Z,97041.16
2022-07-25T12:09:42.769Z,97020.72
2022-07-25T12:14:44.018Z,97018.88
2022-07-25T12:19:45.822Z,97011.28
2022-07-25T12:24:47.080Z,96977.91
2022-07-25T12:29:48.434Z,96991.66
2022-07-25T12:34:49.673Z,96988.66
2022-07-25T12:39:50.916Z,96975.16
2022-07-25T12:44:52.191Z,96981.88
2022-07-25T12:49:53.473Z,96977.75
2022-07-25T12:54:54.730Z,96959.84
2022-07-25T12:59:56.018Z,96948.03
2022-07-25T13:04:57.277Z,96951.63
2022-07-25T13:09:58.534Z,96947.41
2022-07-25T13:15:00.070Z,96946.81
2022-07-25T13:20:01.351Z,96958.16
2022-07-25T13:25:02.650Z,96947.03
2022-07-25T13:30:03.894Z,96930.84
2022-07-25T13:35:05.339Z,96931.44
2022-07-25T13:40:06.726Z,96928.44
2022-07-25T13:45:08.000Z,96899.81
2022-07-25T13:50:09.534Z,96917.06
2022-07-25T13:55:11.550Z,96905.97
2022-07-25T14:00:12.862Z,96889.94
2022-07-25T14:05:14.132Z,96894.28
2022-07-25T14:10:15.386Z,96901.09
2022-07-25T14:15:17.529Z,96852.53
2022-07-25T14:20:18.794Z,96868.06
2022-07-25T14:25:20.048Z,96865.25
2022-07-25T14:30:21.404Z,96859.97
2022-07-25T14:35:22.756Z,96856.56
2022-07-25T14:40:24.027Z,96864.19
2022-07-25T14:45:25.295Z,96844.06
2022-07-25T14:50:27.599Z,96850.63
2022-07-25T14:55:28.884Z,96836.09
2022-07-25T15:00:30.453Z,96842.78
2022-07-25T15:05:31.863Z,96839.47
2022-07-25T15:10:33.131Z,96810.84
2022-07-25T15:15:34.464Z,96813.53
2022-07-25T15:20:35.735Z,96817.94
2022-07-25T15:30:58.396Z,96800.56
2022-07-25T15:35:59.795Z,96802.75
2022-07-25T15:41:01.236Z,96811.38
2022-07-25T15:46:02.715Z,96807.38
2022-07-25T15:51:04.007Z,96778.16
2022-07-25T15:56:05.283Z,96772.34
2022-07-25T16:01:06.829Z,96768.59
2022-07-25T16:06:08.190Z,96774.84
2022-07-25T16:11:09.530Z,96760.75
2022-07-25T16:16:10.812Z,96733.75
2022-07-25T16:21:12.330Z,96714.28
2022-07-25T16:26:13.841Z,96719.53
2022-07-25T16:31:15.223Z,96724.16
2022-07-25T16:36:16.552Z,96728.34
2022-07-25T16:41:17.886Z,96735.19
2022-07-25T16:46:19.189Z,96739.19
2022-07-25T16:51:20.493Z,96733.03
2022-07-25T16:56:21.725Z,96743.31
2022-07-25T17:01:24.822Z,96755.44
2022-07-25T17:06:26.151Z,96768.94
2022-07-25T17:11:27.492Z,96791.84
2022-07-25T17:16:28.814Z,96789.06
2022-07-25T17:21:30.140Z,96786.16
2022-07-25T17:26:31.460Z,96815.06
2022-07-25T17:31:32.818Z,96879.28
2022-07-25T17:36:34.125Z,96953.13
2022-07-25T17:41:35.404Z,97008.78
2022-07-25T17:51:58.851Z,97146.66
2022-07-25T17:57:00.157Z,97127.56
2022-07-25T18:02:04.018Z,97104.16
2022-07-25T18:07:05.470Z,97106.19
2022-07-25T18:12:06.773Z,97128.09
2022-07-25T18:17:08.200Z,97095.41
2022-07-25T18:22:09.650Z,97077.22
2022-07-25T18:27:10.977Z,97076.69
2022-07-25T18:32:12.408Z,97052.25
2022-07-25T18:37:13.901Z,97044.31
2022-07-25T18:42:15.202Z,97038.66
2022-07-25T18:47:16.472Z,97049.38
2022-07-25T18:52:19.123Z,97057.19
2022-07-25T18:57:23.876Z,97064.44
2022-07-25T19:02:25.258Z,97076.94
2022-07-25T19:07:26.744Z,97090.59
2022-07-25T19:12:28.200Z,97091.72
2022-07-25T19:17:29.556Z,97104.22
2022-07-25T19:22:30.834Z,97112.69
2022-07-25T19:27:32.155Z,97117.00
2022-07-25T19:32:35.882Z,97122.47
2022-07-25T19:37:37.135Z,97144.16
2022-07-25T19:42:39.475Z,97126.06
2022-07-25T19:47:40.748Z,97112.88
2022-07-25T19:52:42.065Z,97110.31
2022-07-25T19:57:43.898Z,97099.56
2022-07-25T20:02:45.210Z,97107.91
2022-07-25T20:07:46.580Z,97098.69
2022-07-25T20:12:48.298Z,97100.56
2022-07-25T20:17:49.743Z,97115.59
2022-07-25T20:22:51.078Z,97127.38
2022-07-25T20:27:52.441Z,97140.13
2022-07-25T20:32:53.698Z,97153.81
2022-07-25T20:37:54.956Z,97159.25
2022-07-25T20:42:58.265Z,97157.66
2022-07-25T20:48:00.762Z,97176.94
2022-07-25T20:53:02.196Z,97205.22
2022-07-25T20:58:03.508Z,97178.28
2022-07-25T21:03:04.862Z,97159.81
2022-07-25T21:08:11.028Z,97148.56
2022-07-25T21:13:12.327Z,97131.94
2022-07-25T21:18:17.331Z,97134.38
2022-07-25T21:23:18.729Z,97148.47
2022-07-25T21:28:20.022Z,97152.78
2022-07-25T21:33:21.279Z,97147.13
2022-07-25T21:38:26.681Z,97165.84
2022-07-25T21:43:28.983Z,97161.97
2022-07-25T21:48:49.083Z,97159.03
2022-07-25T21:53:50.488Z,97179.22
2022-07-25T21:58:51.824Z,97199.28
2022-07-25T22:03:53.195Z,97251.84
2022-07-25T22:08:54.560Z,97299.81
2022-07-25T22:13:55.912Z,97297.69
2022-07-25T22:18:57.303Z,97290.56
2022-07-25T22:23:58.682Z,97286.22
2022-07-25T22:28:59.950Z,97275.63
2022-07-25T22:34:01.212Z,97300.31
2022-07-25T22:39:02.468Z,97320.28
2022-07-25T22:44:03.739Z,97333.19
2022-07-25T22:49:05.397Z,97340.81
2022-07-25T22:54:06.987Z,97351.78
2022-07-25T22:59:08.879Z,97367.75
2022-07-25T23:04:11.173Z,97369.84
2022-07-25T23:09:13.572Z,97393.91
2022-07-25T23:14:14.874Z,97392.25
2022-07-25T23:19:16.256Z,97429.25
2022-07-25T23:24:23.339Z,97424.59
2022-07-25T23:29:24.718Z,97413.09
2022-07-25T23:34:26.021Z,97422.19
2022-07-25T23:39:27.311Z,97441.31
2022-07-25T23:44:29.058Z,97450.09
2022-07-25T23:49:30.862Z,97454.75
2022-07-25T23:54:34.875Z,97475.03
2022-07-25T23:59:36.212Z,97502.16
